Shellest — UBAO8 — position and weather

sailwx.info

Track history (hours):
 
Tides and Currents Weather Stations Pressure Air Temp Water Temp Dewpoint Dewpoint Depression Visibility Wind Speed Wind Dir Waves Ship Positions

Shellest

Last reported at 2018-May-20 11:57 UTC. Time now 2018-May-21 07:13 UTC.
Position N 43°50' E 039°12'.

Length 46 m; draft 2.6 m.

Type: Pleasure craft. MMSI: 273385420.

Date/timePositionNaut miles runAvg speedWind from/ knotsBaromVisibWave heightAir tempDewpointWater temp
2018-May-20 11:57N 43°50' E 039°12'4 9.9
2018-May-20 11:30N 43°53' E 039°08'5 9.8
2018-May-20 11:00N 43°57' E 039°03'5 9.8
2018-May-20 10:30N 44°00' E 038°58'5 9.9
2018-May-20 10:00N 44°04' E 038°53'510.6
2018-May-20 09:31N 44°07' E 038°48'510.4
2018-May-20 09:00N 44°10' E 038°42'2610.3
2018-May-20 06:27N 44°24' E 038°10'510.0
2018-May-20 05:54N 44°28' E 038°05'410.2
2018-May-20 05:30N 44°31' E 038°02'3 6.8
2018-May-20 05:01N 44°35' E 038°02'0 0.0
2018-May-20 04:30N 44°35' E 038°02'  
2018-May-15 05:04N 44°35' E 038°02'0 0.1
2018-May-15 05:01N 44°35' E 038°02'0 0.0
2018-May-15 04:31N 44°35' E 038°02'0 0.1
2018-May-15 03:59N 44°35' E 038°02'0 0.0
2018-May-15 03:31N 44°35' E 038°02'0 0.0
2018-May-15 03:01N 44°35' E 038°02'1 1.1
2018-May-15 02:30N 44°34' E 038°03'4 7.1
2018-May-15 01:59N 44°31' E 038°02'910.1
2018-May-15 01:06N 44°24' E 038°10'1210.2
2018-May-14 23:55N 44°18' E 038°25'1810.1
2018-May-14 22:07N 44°09' E 038°47'1 9.8
2018-May-14 22:00N 44°08' E 038°48'5 9.7
2018-May-14 21:30N 44°05' E 038°53'5 9.8
2018-May-14 21:00N 44°01' E 038°58'510.1
2018-May-14 20:30N 43°58' E 039°03'5 9.8
2018-May-14 20:00N 43°55' E 039°08'5 9.9
2018-May-14 19:30N 43°51' E 039°13'  
Track history (hours):
 
Tides and Currents Weather Stations Pressure Air Temp Water Temp Dewpoint Dewpoint Depression Visibility Wind Speed Wind Dir Waves Ship Positions

Shellest

Last reported at 2018-May-20 11:57 UTC. Time now 2018-May-21 07:13 UTC.
Position N 43°50' E 039°12'.

Length 46 m; draft 2.6 m.

Type: Pleasure craft. MMSI: 273385420.

Date/timePositionNaut miles runAvg speedWind from/ knotsBaromVisibWave heightAir tempDewpointWater temp
2018-May-20 11:57N 43°50' E 039°12'4 9.9
2018-May-20 11:30N 43°53' E 039°08'5 9.8
2018-May-20 11:00N 43°57' E 039°03'5 9.8
2018-May-20 10:30N 44°00' E 038°58'5 9.9
2018-May-20 10:00N 44°04' E 038°53'510.6
2018-May-20 09:31N 44°07' E 038°48'510.4
2018-May-20 09:00N 44°10' E 038°42'2610.3
2018-May-20 06:27N 44°24' E 038°10'510.0
2018-May-20 05:54N 44°28' E 038°05'410.2
2018-May-20 05:30N 44°31' E 038°02'3 6.8
2018-May-20 05:01N 44°35' E 038°02'0 0.0
2018-May-20 04:30N 44°35' E 038°02'  
2018-May-15 05:04N 44°35' E 038°02'0 0.1
2018-May-15 05:01N 44°35' E 038°02'0 0.0
2018-May-15 04:31N 44°35' E 038°02'0 0.1
2018-May-15 03:59N 44°35' E 038°02'0 0.0
2018-May-15 03:31N 44°35' E 038°02'0 0.0
2018-May-15 03:01N 44°35' E 038°02'1 1.1
2018-May-15 02:30N 44°34' E 038°03'4 7.1
2018-May-15 01:59N 44°31' E 038°02'910.1
2018-May-15 01:06N 44°24' E 038°10'1210.2
2018-May-14 23:55N 44°18' E 038°25'1810.1
2018-May-14 22:07N 44°09' E 038°47'1 9.8
2018-May-14 22:00N 44°08' E 038°48'5 9.7
2018-May-14 21:30N 44°05' E 038°53'5 9.8
2018-May-14 21:00N 44°01' E 038°58'510.1
2018-May-14 20:30N 43°58' E 039°03'5 9.8
2018-May-14 20:00N 43°55' E 039°08'5 9.9
2018-May-14 19:30N 43°51' E 039°13'  

Dump ship's entire track history